sensor_id;sensor_type;location;lat;lon;timestamp;temperature;humidity
3868;DHT22;1949;48.152;11.528;2023-10-19T00:00:57;15.30;49.40
3868;DHT22;1949;48.152;11.528;2023-10-19T00:03:24;15.30;49.30
3868;DHT22;1949;48.152;11.528;2023-10-19T00:05:50;15.20;49.30
3868;DHT22;1949;48.152;11.528;2023-10-19T00:08:16;15.30;49.40
3868;DHT22;1949;48.152;11.528;2023-10-19T00:10:51;15.30;49.30
3868;DHT22;1949;48.152;11.528;2023-10-19T00:13:28;15.30;49.20
3868;DHT22;1949;48.152;11.528;2023-10-19T00:15:56;15.30;49.20
3868;DHT22;1949;48.152;11.528;2023-10-19T00:18:26;15.30;49.20
3868;DHT22;1949;48.152;11.528;2023-10-19T00:20:54;15.20;49.20
3868;DHT22;1949;48.152;11.528;2023-10-19T00:23:46;15.20;49.30
3868;DHT22;1949;48.152;11.528;2023-10-19T00:26:13;15.20;49.40
3868;DHT22;1949;48.152;11.528;2023-10-19T00:28:51;15.20;49.40
3868;DHT22;1949;48.152;11.528;2023-10-19T00:31:26;15.20;49.40
3868;DHT22;1949;48.152;11.528;2023-10-19T00:33:53;15.20;49.40
3868;DHT22;1949;48.152;11.528;2023-10-19T00:36:23;15.20;49.40
3868;DHT22;1949;48.152;11.528;2023-10-19T00:38:49;15.30;49.40
3868;DHT22;1949;48.152;11.528;2023-10-19T00:41:16;15.30;49.40
3868;DHT22;1949;48.152;11.528;2023-10-19T00:43:48;15.30;49.30
3868;DHT22;1949;48.152;11.528;2023-10-19T00:46:23;15.30;49.30
3868;DHT22;1949;48.152;11.528;2023-10-19T00:49:01;15.20;49.80
3868;DHT22;1949;48.152;11.528;2023-10-19T00:51:39;15.20;49.30
3868;DHT22;1949;48.152;11.528;2023-10-19T00:54:11;15.20;49.40
3868;DHT22;1949;48.152;11.528;2023-10-19T00:56:42;15.20;49.40
3868;DHT22;1949;48.152;11.528;2023-10-19T00:59:14;15.20;49.50
3868;DHT22;1949;48.152;11.528;2023-10-19T01:01:46;15.20;49.50
3868;DHT22;1949;48.152;11.528;2023-10-19T01:04:16;15.20;49.50
3868;DHT22;1949;48.152;11.528;2023-10-19T01:06:51;15.20;49.50
3868;DHT22;1949;48.152;11.528;2023-10-19T01:09:38;15.20;49.40
3868;DHT22;1949;48.152;11.528;2023-10-19T01:12:04;15.20;49.50
3868;DHT22;1949;48.152;11.528;2023-10-19T01:17:36;15.20;49.60
3868;DHT22;1949;48.152;11.528;2023-10-19T01:20:07;15.20;49.60
3868;DHT22;1949;48.152;11.528;2023-10-19T01:23:08;15.20;49.60
3868;DHT22;1949;48.152;11.528;2023-10-19T01:25:51;15.20;49.60
3868;DHT22;1949;48.152;11.528;2023-10-19T01:28:25;15.10;49.50
3868;DHT22;1949;48.152;11.528;2023-10-19T01:30:54;15.10;49.60
3868;DHT22;1949;48.152;11.528;2023-10-19T01:33:21;15.10;49.60
3868;DHT22;1949;48.152;11.528;2023-10-19T01:35:47;15.00;49.60
3868;DHT22;1949;48.152;11.528;2023-10-19T01:38:32;15.00;50.00
3868;DHT22;1949;48.152;11.528;2023-10-19T01:40:59;15.10;49.80
3868;DHT22;1949;48.152;11.528;2023-10-19T01:43:28;15.00;49.70
3868;DHT22;1949;48.152;11.528;2023-10-19T01:46:01;15.00;49.70
3868;DHT22;1949;48.152;11.528;2023-10-19T01:48:31;15.00;49.80
3868;DHT22;1949;48.152;11.528;2023-10-19T01:51:05;15.00;49.80
3868;DHT22;1949;48.152;11.528;2023-10-19T01:53:33;15.00;49.80
3868;DHT22;1949;48.152;11.528;2023-10-19T01:56:00;15.00;49.70
3868;DHT22;1949;48.152;11.528;2023-10-19T01:58:25;15.00;49.80
3868;DHT22;1949;48.152;11.528;2023-10-19T02:00:53;15.10;49.90
3868;DHT22;1949;48.152;11.528;2023-10-19T02:03:26;15.10;50.00
3868;DHT22;1949;48.152;11.528;2023-10-19T02:06:00;15.10;49.80
3868;DHT22;1949;48.152;11.528;2023-10-19T02:08:26;15.10;49.80
3868;DHT22;1949;48.152;11.528;2023-10-19T02:10:55;15.10;49.70
3868;DHT22;1949;48.152;11.528;2023-10-19T02:13:22;15.10;49.80
3868;DHT22;1949;48.152;11.528;2023-10-19T02:15:49;15.00;49.70
3868;DHT22;1949;48.152;11.528;2023-10-19T02:18:16;15.00;49.80
3868;DHT22;1949;48.152;11.528;2023-10-19T02:20:43;15.00;49.80
3868;DHT22;1949;48.152;11.528;2023-10-19T02:23:13;14.90;49.90
3868;DHT22;1949;48.152;11.528;2023-10-19T02:25:40;14.90;49.90
3868;DHT22;1949;48.152;11.528;2023-10-19T02:28:05;14.90;49.90
3868;DHT22;1949;48.152;11.528;2023-10-19T02:30:35;14.90;49.90
3868;DHT22;1949;48.152;11.528;2023-10-19T02:33:01;14.90;50.00
3868;DHT22;1949;48.152;11.528;2023-10-19T02:35:27;14.90;50.10
3868;DHT22;1949;48.152;11.528;2023-10-19T02:37:53;14.90;50.00
3868;DHT22;1949;48.152;11.528;2023-10-19T02:40:20;14.90;50.00
3868;DHT22;1949;48.152;11.528;2023-10-19T02:42:46;14.90;49.90
3868;DHT22;1949;48.152;11.528;2023-10-19T02:45:14;14.90;49.80
3868;DHT22;1949;48.152;11.528;2023-10-19T02:47:43;14.90;49.90
3868;DHT22;1949;48.152;11.528;2023-10-19T02:50:10;14.80;50.60
3868;DHT22;1949;48.152;11.528;2023-10-19T02:52:45;14.80;50.10
3868;DHT22;1949;48.152;11.528;2023-10-19T02:55:10;14.80;50.20
3868;DHT22;1949;48.152;11.528;2023-10-19T02:57:36;14.90;50.30
3868;DHT22;1949;48.152;11.528;2023-10-19T03:00:05;14.90;50.20
3868;DHT22;1949;48.152;11.528;2023-10-19T03:02:38;14.90;50.20
3868;DHT22;1949;48.152;11.528;2023-10-19T03:05:05;15.00;50.20
3868;DHT22;1949;48.152;11.528;2023-10-19T03:07:41;15.00;50.70
3868;DHT22;1949;48.152;11.528;2023-10-19T03:10:11;15.00;50.10
3868;DHT22;1949;48.152;11.528;2023-10-19T03:12:50;15.00;50.20
3868;DHT22;1949;48.152;11.528;2023-10-19T03:15:17;15.00;50.10
3868;DHT22;1949;48.152;11.528;2023-10-19T03:17:46;14.90;50.00
3868;DHT22;1949;48.152;11.528;2023-10-19T03:20:12;14.90;50.00
3868;DHT22;1949;48.152;11.528;2023-10-19T03:22:39;14.90;50.10
3868;DHT22;1949;48.152;11.528;2023-10-19T03:25:07;14.80;50.10
3868;DHT22;1949;48.152;11.528;2023-10-19T03:27:51;14.80;50.20
3868;DHT22;1949;48.152;11.528;2023-10-19T03:30:18;14.70;50.30
3868;DHT22;1949;48.152;11.528;2023-10-19T03:32:44;14.70;50.30
3868;DHT22;1949;48.152;11.528;2023-10-19T03:35:10;14.70;50.50
3868;DHT22;1949;48.152;11.528;2023-10-19T03:37:40;14.70;50.60
3868;DHT22;1949;48.152;11.528;2023-10-19T03:40:08;14.80;50.60
3868;DHT22;1949;48.152;11.528;2023-10-19T03:42:36;14.70;50.50
3868;DHT22;1949;48.152;11.528;2023-10-19T03:45:09;14.80;50.50
3868;DHT22;1949;48.152;11.528;2023-10-19T03:47:39;14.70;50.40
3868;DHT22;1949;48.152;11.528;2023-10-19T03:50:09;14.70;50.60
3868;DHT22;1949;48.152;11.528;2023-10-19T03:52:40;14.70;50.60
3868;DHT22;1949;48.152;11.528;2023-10-19T03:55:07;14.70;50.60
3868;DHT22;1949;48.152;11.528;2023-10-19T03:57:37;14.70;50.70
3868;DHT22;1949;48.152;11.528;2023-10-19T04:00:07;14.70;50.90
3868;DHT22;1949;48.152;11.528;2023-10-19T04:02:41;14.70;51.00
3868;DHT22;1949;48.152;11.528;2023-10-19T04:05:11;14.80;51.00
3868;DHT22;1949;48.152;11.528;2023-10-19T04:07:40;14.80;50.90
3868;DHT22;1949;48.152;11.528;2023-10-19T04:10:10;14.90;51.00
3868;DHT22;1949;48.152;11.528;2023-10-19T04:12:55;14.90;51.00
3868;DHT22;1949;48.152;11.528;2023-10-19T04:15:21;14.90;50.90
3868;DHT22;1949;48.152;11.528;2023-10-19T04:17:48;15.00;50.90
3868;DHT22;1949;48.152;11.528;2023-10-19T04:20:16;15.00;50.90
3868;DHT22;1949;48.152;11.528;2023-10-19T04:22:45;15.00;50.90
3868;DHT22;1949;48.152;11.528;2023-10-19T04:25:12;15.10;50.90
3868;DHT22;1949;48.152;11.528;2023-10-19T04:27:41;15.10;50.90
3868;DHT22;1949;48.152;11.528;2023-10-19T04:30:09;15.10;50.90
3868;DHT22;1949;48.152;11.528;2023-10-19T04:32:55;15.10;50.80
3868;DHT22;1949;48.152;11.528;2023-10-19T04:35:22;15.10;50.90
3868;DHT22;1949;48.152;11.528;2023-10-19T04:37:52;15.10;50.90
3868;DHT22;1949;48.152;11.528;2023-10-19T04:40:19;15.10;51.00
3868;DHT22;1949;48.152;11.528;2023-10-19T04:42:45;15.10;50.90
3868;DHT22;1949;48.152;11.528;2023-10-19T04:45:12;15.10;51.00
3868;DHT22;1949;48.152;11.528;2023-10-19T04:47:39;15.10;51.10
3868;DHT22;1949;48.152;11.528;2023-10-19T04:50:05;15.10;51.10
3868;DHT22;1949;48.152;11.528;2023-10-19T04:52:32;15.10;51.20
3868;DHT22;1949;48.152;11.528;2023-10-19T04:54:58;15.10;51.10
3868;DHT22;1949;48.152;11.528;2023-10-19T04:57:24;15.20;51.70
3868;DHT22;1949;48.152;11.528;2023-10-19T04:59:51;15.20;51.10
3868;DHT22;1949;48.152;11.528;2023-10-19T05:02:17;15.10;51.00
3868;DHT22;1949;48.152;11.528;2023-10-19T05:04:44;15.10;51.10
3868;DHT22;1949;48.152;11.528;2023-10-19T05:07:11;15.10;51.20
3868;DHT22;1949;48.152;11.528;2023-10-19T05:09:43;15.10;51.20
3868;DHT22;1949;48.152;11.528;2023-10-19T05:12:09;15.10;51.30
3868;DHT22;1949;48.152;11.528;2023-10-19T05:14:39;15.10;51.30
3868;DHT22;1949;48.152;11.528;2023-10-19T05:17:05;15.10;51.40
3868;DHT22;1949;48.152;11.528;2023-10-19T05:19:31;15.20;51.40
3868;DHT22;1949;48.152;11.528;2023-10-19T05:21:59;15.20;51.30
3868;DHT22;1949;48.152;11.528;2023-10-19T05:24:25;15.20;51.30
3868;DHT22;1949;48.152;11.528;2023-10-19T05:26:51;15.20;51.30
3868;DHT22;1949;48.152;11.528;2023-10-19T05:29:19;15.20;51.40
3868;DHT22;1949;48.152;11.528;2023-10-19T05:31:45;15.20;51.40
3868;DHT22;1949;48.152;11.528;2023-10-19T05:34:11;15.30;51.50
3868;DHT22;1949;48.152;11.528;2023-10-19T05:36:37;15.20;51.90
3868;DHT22;1949;48.152;11.528;2023-10-19T05:39:02;15.20;51.40
3868;DHT22;1949;48.152;11.528;2023-10-19T05:41:39;15.20;51.50
3868;DHT22;1949;48.152;11.528;2023-10-19T05:44:05;15.30;51.60
3868;DHT22;1949;48.152;11.528;2023-10-19T05:46:31;15.30;51.60
3868;DHT22;1949;48.152;11.528;2023-10-19T05:48:57;15.30;51.50
3868;DHT22;1949;48.152;11.528;2023-10-19T05:51:23;15.30;51.50
3868;DHT22;1949;48.152;11.528;2023-10-19T05:53:50;15.20;51.50
3868;DHT22;1949;48.152;11.528;2023-10-19T05:56:16;15.30;51.60
3868;DHT22;1949;48.152;11.528;2023-10-19T05:58:43;15.30;51.60
3868;DHT22;1949;48.152;11.528;2023-10-19T06:01:10;15.30;51.70
3868;DHT22;1949;48.152;11.528;2023-10-19T06:03:35;15.30;52.20
3868;DHT22;1949;48.152;11.528;2023-10-19T06:06:01;15.30;51.70
3868;DHT22;1949;48.152;11.528;2023-10-19T06:08:27;15.30;51.70
3868;DHT22;1949;48.152;11.528;2023-10-19T06:10:55;15.30;51.70
3868;DHT22;1949;48.152;11.528;2023-10-19T06:13:21;15.30;51.80
3868;DHT22;1949;48.152;11.528;2023-10-19T06:15:50;15.30;51.80
3868;DHT22;1949;48.152;11.528;2023-10-19T06:18:17;15.30;51.90
3868;DHT22;1949;48.152;11.528;2023-10-19T06:20:45;15.30;51.90
3868;DHT22;1949;48.152;11.528;2023-10-19T06:23:11;15.30;52.00
3868;DHT22;1949;48.152;11.528;2023-10-19T06:25:38;15.30;51.90
3868;DHT22;1949;48.152;11.528;2023-10-19T06:28:05;15.30;52.00
3868;DHT22;1949;48.152;11.528;2023-10-19T06:30:31;15.30;52.00
3868;DHT22;1949;48.152;11.528;2023-10-19T06:32:58;15.30;52.00
3868;DHT22;1949;48.152;11.528;2023-10-19T06:35:31;15.30;52.00
3868;DHT22;1949;48.152;11.528;2023-10-19T06:37:57;15.30;52.00
3868;DHT22;1949;48.152;11.528;2023-10-19T06:40:24;15.30;52.00
3868;DHT22;1949;48.152;11.528;2023-10-19T06:42:54;15.40;52.10
3868;DHT22;1949;48.152;11.528;2023-10-19T06:45:23;15.40;52.10
3868;DHT22;1949;48.152;11.528;2023-10-19T06:47:51;15.40;52.10
3868;DHT22;1949;48.152;11.528;2023-10-19T06:50:21;15.40;52.20
3868;DHT22;1949;48.152;11.528;2023-10-19T06:52:48;15.40;52.20
3868;DHT22;1949;48.152;11.528;2023-10-19T06:55:15;15.40;52.10
3868;DHT22;1949;48.152;11.528;2023-10-19T06:57:47;15.50;52.20
3868;DHT22;1949;48.152;11.528;2023-10-19T07:00:15;15.50;52.20
3868;DHT22;1949;48.152;11.528;2023-10-19T07:02:46;15.50;52.20
3868;DHT22;1949;48.152;11.528;2023-10-19T07:05:15;15.50;52.10
3868;DHT22;1949;48.152;11.528;2023-10-19T07:07:46;15.60;52.30
3868;DHT22;1949;48.152;11.528;2023-10-19T07:10:13;15.60;52.30
3868;DHT22;1949;48.152;11.528;2023-10-19T07:12:41;15.60;52.30
3868;DHT22;1949;48.152;11.528;2023-10-19T07:15:08;15.60;52.30
3868;DHT22;1949;48.152;11.528;2023-10-19T07:17:37;15.70;52.40
3868;DHT22;1949;48.152;11.528;2023-10-19T07:20:06;15.70;52.50
3868;DHT22;1949;48.152;11.528;2023-10-19T07:22:35;15.70;52.40
3868;DHT22;1949;48.152;11.528;2023-10-19T07:25:07;15.80;52.40
3868;DHT22;1949;48.152;11.528;2023-10-19T07:27:34;15.80;52.40
3868;DHT22;1949;48.152;11.528;2023-10-19T07:30:04;15.90;52.40
3868;DHT22;1949;48.152;11.528;2023-10-19T07:32:35;15.90;52.40
3868;DHT22;1949;48.152;11.528;2023-10-19T07:35:01;15.90;52.30
3868;DHT22;1949;48.152;11.528;2023-10-19T07:37:26;15.90;52.40
3868;DHT22;1949;48.152;11.528;2023-10-19T07:39:54;16.00;52.50
3868;DHT22;1949;48.152;11.528;2023-10-19T07:42:23;16.00;52.50
3868;DHT22;1949;48.152;11.528;2023-10-19T07:44:49;16.10;52.60
3868;DHT22;1949;48.152;11.528;2023-10-19T07:47:15;16.10;52.60
3868;DHT22;1949;48.152;11.528;2023-10-19T07:49:40;16.20;52.70
3868;DHT22;1949;48.152;11.528;2023-10-19T07:52:07;16.20;52.60
3868;DHT22;1949;48.152;11.528;2023-10-19T07:54:37;16.20;52.60
3868;DHT22;1949;48.152;11.528;2023-10-19T07:57:03;16.30;52.70
3868;DHT22;1949;48.152;11.528;2023-10-19T07:59:34;16.30;52.70
3868;DHT22;1949;48.152;11.528;2023-10-19T08:02:01;16.30;52.70
3868;DHT22;1949;48.152;11.528;2023-10-19T08:04:30;16.40;52.80
3868;DHT22;1949;48.152;11.528;2023-10-19T08:06:58;16.30;52.70
3868;DHT22;1949;48.152;11.528;2023-10-19T08:09:24;16.40;52.80
3868;DHT22;1949;48.152;11.528;2023-10-19T08:11:51;16.40;52.90
3868;DHT22;1949;48.152;11.528;2023-10-19T08:14:27;16.40;52.90
3868;DHT22;1949;48.152;11.528;2023-10-19T08:16:53;16.50;53.00
3868;DHT22;1949;48.152;11.528;2023-10-19T08:19:19;16.50;52.90
3868;DHT22;1949;48.152;11.528;2023-10-19T08:21:45;16.60;53.50
3868;DHT22;1949;48.152;11.528;2023-10-19T08:24:11;16.60;52.90
3868;DHT22;1949;48.152;11.528;2023-10-19T08:26:44;16.60;52.90
3868;DHT22;1949;48.152;11.528;2023-10-19T08:29:11;16.60;53.00
3868;DHT22;1949;48.152;11.528;2023-10-19T08:31:43;16.70;53.00
3868;DHT22;1949;48.152;11.528;2023-10-19T08:34:12;16.80;53.70
3868;DHT22;1949;48.152;11.528;2023-10-19T08:36:39;16.80;53.00
3868;DHT22;1949;48.152;11.528;2023-10-19T08:39:06;16.90;53.10
3868;DHT22;1949;48.152;11.528;2023-10-19T08:41:34;16.90;53.10
3868;DHT22;1949;48.152;11.528;2023-10-19T08:44:02;16.90;53.00
3868;DHT22;1949;48.152;11.528;2023-10-19T08:46:28;17.00;53.10
3868;DHT22;1949;48.152;11.528;2023-10-19T08:48:57;17.00;53.00
3868;DHT22;1949;48.152;11.528;2023-10-19T08:51:25;17.00;53.10
3868;DHT22;1949;48.152;11.528;2023-10-19T08:53:54;17.10;53.10
3868;DHT22;1949;48.152;11.528;2023-10-19T08:56:20;17.10;53.00
3868;DHT22;1949;48.152;11.528;2023-10-19T08:58:50;17.10;53.00
3868;DHT22;1949;48.152;11.528;2023-10-19T09:01:19;17.10;53.00
3868;DHT22;1949;48.152;11.528;2023-10-19T09:03:45;17.10;53.00
3868;DHT22;1949;48.152;11.528;2023-10-19T09:06:12;17.20;53.00
3868;DHT22;1949;48.152;11.528;2023-10-19T09:08:40;17.20;53.10
3868;DHT22;1949;48.152;11.528;2023-10-19T09:11:10;17.20;53.10
3868;DHT22;1949;48.152;11.528;2023-10-19T09:13:48;17.30;53.20
3868;DHT22;1949;48.152;11.528;2023-10-19T09:16:15;17.30;53.20
3868;DHT22;1949;48.152;11.528;2023-10-19T09:18:41;17.30;53.10
3868;DHT22;1949;48.152;11.528;2023-10-19T09:21:07;17.40;53.20
3868;DHT22;1949;48.152;11.528;2023-10-19T09:23:37;17.40;53.20
3868;DHT22;1949;48.152;11.528;2023-10-19T09:26:04;17.40;53.10
3868;DHT22;1949;48.152;11.528;2023-10-19T09:28:31;17.40;53.10
3868;DHT22;1949;48.152;11.528;2023-10-19T09:31:00;17.40;53.00
3868;DHT22;1949;48.152;11.528;2023-10-19T09:33:27;17.40;53.00
3868;DHT22;1949;48.152;11.528;2023-10-19T09:35:53;17.50;53.10
3868;DHT22;1949;48.152;11.528;2023-10-19T09:38:20;17.50;53.10
3868;DHT22;1949;48.152;11.528;2023-10-19T09:40:50;17.50;53.10
3868;DHT22;1949;48.152;11.528;2023-10-19T09:43:35;17.50;53.20
3868;DHT22;1949;48.152;11.528;2023-10-19T09:46:21;17.50;53.20
3868;DHT22;1949;48.152;11.528;2023-10-19T09:48:47;17.60;53.30
3868;DHT22;1949;48.152;11.528;2023-10-19T09:51:18;17.60;53.40
3868;DHT22;1949;48.152;11.528;2023-10-19T09:54:22;17.60;53.30
3868;DHT22;1949;48.152;11.528;2023-10-19T09:56:42;17.70;53.30
3868;DHT22;1949;48.152;11.528;2023-10-19T09:59:46;17.70;53.30
3868;DHT22;1949;48.152;11.528;2023-10-19T10:02:14;17.70;53.40
3868;DHT22;1949;48.152;11.528;2023-10-19T10:04:41;17.80;53.60
3868;DHT22;1949;48.152;11.528;2023-10-19T10:07:11;17.90;53.70
3868;DHT22;1949;48.152;11.528;2023-10-19T10:09:39;17.90;53.70
3868;DHT22;1949;48.152;11.528;2023-10-19T10:12:20;17.90;53.80
3868;DHT22;1949;48.152;11.528;2023-10-19T10:15:04;17.90;53.70
3868;DHT22;1949;48.152;11.528;2023-10-19T10:17:34;18.00;53.70
3868;DHT22;1949;48.152;11.528;2023-10-19T10:22:41;18.00;53.80
3868;DHT22;1949;48.152;11.528;2023-10-19T10:25:08;18.00;53.80
3868;DHT22;1949;48.152;11.528;2023-10-19T10:27:36;18.10;53.90
3868;DHT22;1949;48.152;11.528;2023-10-19T10:30:16;18.10;54.00
3868;DHT22;1949;48.152;11.528;2023-10-19T10:36:13;18.10;53.90
3868;DHT22;1949;48.152;11.528;2023-10-19T10:38:19;18.10;53.80
3868;DHT22;1949;48.152;11.528;2023-10-19T10:40:48;18.10;53.80
3868;DHT22;1949;48.152;11.528;2023-10-19T10:43:15;18.10;53.90
3868;DHT22;1949;48.152;11.528;2023-10-19T10:45:42;18.20;53.90
3868;DHT22;1949;48.152;11.528;2023-10-19T10:48:14;18.10;53.90
3868;DHT22;1949;48.152;11.528;2023-10-19T10:50:40;18.20;54.00
3868;DHT22;1949;48.152;11.528;2023-10-19T10:53:12;18.20;53.90
3868;DHT22;1949;48.152;11.528;2023-10-19T10:55:38;18.20;53.90
3868;DHT22;1949;48.152;11.528;2023-10-19T10:58:05;18.20;53.80
3868;DHT22;1949;48.152;11.528;2023-10-19T11:00:30;18.30;53.90
3868;DHT22;1949;48.152;11.528;2023-10-19T11:03:04;18.30;53.90
3868;DHT22;1949;48.152;11.528;2023-10-19T11:05:33;18.30;54.00
3868;DHT22;1949;48.152;11.528;2023-10-19T11:08:07;18.30;54.00
3868;DHT22;1949;48.152;11.528;2023-10-19T11:10:35;18.40;54.10
3868;DHT22;1949;48.152;11.528;2023-10-19T11:13:03;18.40;54.00
3868;DHT22;1949;48.152;11.528;2023-10-19T11:15:29;18.50;54.00
3868;DHT22;1949;48.152;11.528;2023-10-19T11:17:55;18.50;53.90
3868;DHT22;1949;48.152;11.528;2023-10-19T11:20:22;18.50;53.90
3868;DHT22;1949;48.152;11.528;2023-10-19T11:22:49;18.50;53.90
3868;DHT22;1949;48.152;11.528;2023-10-19T11:25:23;18.50;54.00
3868;DHT22;1949;48.152;11.528;2023-10-19T11:27:49;18.60;54.10
3868;DHT22;1949;48.152;11.528;2023-10-19T11:30:29;18.60;54.00
3868;DHT22;1949;48.152;11.528;2023-10-19T11:32:57;18.60;54.10
3868;DHT22;1949;48.152;11.528;2023-10-19T11:35:27;18.60;54.00
3868;DHT22;1949;48.152;11.528;2023-10-19T11:37:57;18.70;54.00
3868;DHT22;1949;48.152;11.528;2023-10-19T11:40:25;18.70;54.00
3868;DHT22;1949;48.152;11.528;2023-10-19T11:42:52;18.70;54.00
3868;DHT22;1949;48.152;11.528;2023-10-19T11:45:18;18.70;54.00
3868;DHT22;1949;48.152;11.528;2023-10-19T11:47:45;18.70;54.00
3868;DHT22;1949;48.152;11.528;2023-10-19T11:50:14;18.80;54.10
3868;DHT22;1949;48.152;11.528;2023-10-19T11:52:44;18.80;54.20
3868;DHT22;1949;48.152;11.528;2023-10-19T11:55:15;18.90;54.30
3868;DHT22;1949;48.152;11.528;2023-10-19T11:57:44;18.90;54.20
3868;DHT22;1949;48.152;11.528;2023-10-19T12:00:13;18.90;54.20
3868;DHT22;1949;48.152;11.528;2023-10-19T12:02:49;19.00;54.30
3868;DHT22;1949;48.152;11.528;2023-10-19T12:05:15;19.00;54.30
3868;DHT22;1949;48.152;11.528;2023-10-19T12:07:41;19.00;54.20
3868;DHT22;1949;48.152;11.528;2023-10-19T12:10:09;19.10;54.40
3868;DHT22;1949;48.152;11.528;2023-10-19T12:12:37;19.10;54.40
3868;DHT22;1949;48.152;11.528;2023-10-19T12:15:06;19.20;54.40
3868;DHT22;1949;48.152;11.528;2023-10-19T12:17:34;19.30;54.50
3868;DHT22;1949;48.152;11.528;2023-10-19T12:20:00;19.30;54.30
3868;DHT22;1949;48.152;11.528;2023-10-19T12:22:32;19.30;54.10
3868;DHT22;1949;48.152;11.528;2023-10-19T12:25:05;19.30;54.10
3868;DHT22;1949;48.152;11.528;2023-10-19T12:27:30;19.40;54.10
3868;DHT22;1949;48.152;11.528;2023-10-19T12:29:56;19.30;53.90
3868;DHT22;1949;48.152;11.528;2023-10-19T12:32:24;19.30;53.90
3868;DHT22;1949;48.152;11.528;2023-10-19T12:34:51;19.30;54.00
3868;DHT22;1949;48.152;11.528;2023-10-19T12:37:23;19.40;54.00
3868;DHT22;1949;48.152;11.528;2023-10-19T12:39:50;19.40;54.00
3868;DHT22;1949;48.152;11.528;2023-10-19T12:42:17;19.40;54.00
3868;DHT22;1949;48.152;11.528;2023-10-19T12:44:43;19.50;54.10
3868;DHT22;1949;48.152;11.528;2023-10-19T12:47:10;19.50;53.90
3868;DHT22;1949;48.152;11.528;2023-10-19T12:49:40;19.50;53.90
3868;DHT22;1949;48.152;11.528;2023-10-19T12:52:07;19.50;53.80
3868;DHT22;1949;48.152;11.528;2023-10-19T12:54:34;19.60;53.90
3868;DHT22;1949;48.152;11.528;2023-10-19T12:57:07;19.70;54.10
3868;DHT22;1949;48.152;11.528;2023-10-19T12:59:36;19.80;54.00
3868;DHT22;1949;48.152;11.528;2023-10-19T13:02:05;19.80;53.80
3868;DHT22;1949;48.152;11.528;2023-10-19T13:04:35;19.90;53.80
3868;DHT22;1949;48.152;11.528;2023-10-19T13:07:02;19.90;53.70
3868;DHT22;1949;48.152;11.528;2023-10-19T13:09:29;19.90;53.70
3868;DHT22;1949;48.152;11.528;2023-10-19T13:11:59;19.80;53.60
3868;DHT22;1949;48.152;11.528;2023-10-19T13:14:31;19.80;53.60
3868;DHT22;1949;48.152;11.528;2023-10-19T13:16:57;19.80;53.50
3868;DHT22;1949;48.152;11.528;2023-10-19T13:19:25;19.80;53.50
3868;DHT22;1949;48.152;11.528;2023-10-19T13:21:52;19.80;53.50
3868;DHT22;1949;48.152;11.528;2023-10-19T13:24:19;19.80;53.40
3868;DHT22;1949;48.152;11.528;2023-10-19T13:26:48;19.80;53.40
3868;DHT22;1949;48.152;11.528;2023-10-19T13:29:14;19.80;53.50
3868;DHT22;1949;48.152;11.528;2023-10-19T13:31:45;19.70;53.40
3868;DHT22;1949;48.152;11.528;2023-10-19T13:34:22;19.70;53.50
3868;DHT22;1949;48.152;11.528;2023-10-19T13:36:48;19.70;53.50
3868;DHT22;1949;48.152;11.528;2023-10-19T13:39:15;19.70;53.40
3868;DHT22;1949;48.152;11.528;2023-10-19T13:41:43;19.70;53.50
3868;DHT22;1949;48.152;11.528;2023-10-19T13:44:09;19.60;53.40
3868;DHT22;1949;48.152;11.528;2023-10-19T13:46:37;19.60;53.50
3868;DHT22;1949;48.152;11.528;2023-10-19T13:49:03;19.60;53.50
3868;DHT22;1949;48.152;11.528;2023-10-19T13:51:33;19.60;53.50
3868;DHT22;1949;48.152;11.528;2023-10-19T13:54:00;19.60;53.60
3868;DHT22;1949;48.152;11.528;2023-10-19T13:56:26;19.60;53.50
3868;DHT22;1949;48.152;11.528;2023-10-19T13:58:52;19.50;53.50
3868;DHT22;1949;48.152;11.528;2023-10-19T14:01:20;19.50;53.50
3868;DHT22;1949;48.152;11.528;2023-10-19T14:03:51;19.50;53.60
3868;DHT22;1949;48.152;11.528;2023-10-19T14:06:20;19.50;53.60
3868;DHT22;1949;48.152;11.528;2023-10-19T14:08:47;19.50;53.70
3868;DHT22;1949;48.152;11.528;2023-10-19T14:11:14;19.40;53.60
3868;DHT22;1949;48.152;11.528;2023-10-19T14:13:43;19.40;53.70
3868;DHT22;1949;48.152;11.528;2023-10-19T14:16:15;19.40;53.70
3868;DHT22;1949;48.152;11.528;2023-10-19T14:18:42;19.40;53.70
3868;DHT22;1949;48.152;11.528;2023-10-19T14:21:16;19.40;53.80
3868;DHT22;1949;48.152;11.528;2023-10-19T14:23:42;19.40;53.90
3868;DHT22;1949;48.152;11.528;2023-10-19T14:26:10;19.30;53.80
3868;DHT22;1949;48.152;11.528;2023-10-19T14:28:37;19.30;54.00
3868;DHT22;1949;48.152;11.528;2023-10-19T14:31:04;19.30;54.00
3868;DHT22;1949;48.152;11.528;2023-10-19T14:33:30;19.40;54.10
3868;DHT22;1949;48.152;11.528;2023-10-19T14:36:02;19.30;54.10
3868;DHT22;1949;48.152;11.528;2023-10-19T14:38:28;19.30;54.20
3868;DHT22;1949;48.152;11.528;2023-10-19T14:40:55;19.30;54.20
3868;DHT22;1949;48.152;11.528;2023-10-19T14:43:21;19.40;54.30
3868;DHT22;1949;48.152;11.528;2023-10-19T14:45:47;19.40;54.30
3868;DHT22;1949;48.152;11.528;2023-10-19T14:48:13;19.40;54.40
3868;DHT22;1949;48.152;11.528;2023-10-19T14:50:40;19.30;54.30
3868;DHT22;1949;48.152;11.528;2023-10-19T14:53:07;19.30;54.50
3868;DHT22;1949;48.152;11.528;2023-10-19T14:55:34;19.30;54.60
3868;DHT22;1949;48.152;11.528;2023-10-19T14:57:59;19.30;54.70
3868;DHT22;1949;48.152;11.528;2023-10-19T15:00:26;19.30;54.70
3868;DHT22;1949;48.152;11.528;2023-10-19T15:02:53;19.30;54.90
3868;DHT22;1949;48.152;11.528;2023-10-19T15:05:23;19.30;54.90
3868;DHT22;1949;48.152;11.528;2023-10-19T15:07:52;19.30;55.00
3868;DHT22;1949;48.152;11.528;2023-10-19T15:10:28;19.30;55.10
3868;DHT22;1949;48.152;11.528;2023-10-19T15:12:55;19.20;55.10
3868;DHT22;1949;48.152;11.528;2023-10-19T15:15:25;19.20;55.20
3868;DHT22;1949;48.152;11.528;2023-10-19T15:17:51;19.30;55.30
3868;DHT22;1949;48.152;11.528;2023-10-19T15:20:20;19.20;55.30
3868;DHT22;1949;48.152;11.528;2023-10-19T15:22:46;19.20;55.40
3868;DHT22;1949;48.152;11.528;2023-10-19T15:25:13;19.20;55.50
3868;DHT22;1949;48.152;11.528;2023-10-19T15:27:40;19.20;55.50
3868;DHT22;1949;48.152;11.528;2023-10-19T15:30:07;19.10;55.50
3868;DHT22;1949;48.152;11.528;2023-10-19T15:32:41;19.10;55.50
3868;DHT22;1949;48.152;11.528;2023-10-19T15:35:10;19.10;55.50
3868;DHT22;1949;48.152;11.528;2023-10-19T15:37:37;19.10;55.60
3868;DHT22;1949;48.152;11.528;2023-10-19T15:40:04;19.10;55.60
3868;DHT22;1949;48.152;11.528;2023-10-19T15:42:30;19.10;55.60
3868;DHT22;1949;48.152;11.528;2023-10-19T15:44:56;19.10;55.70
3868;DHT22;1949;48.152;11.528;2023-10-19T15:47:22;19.10;55.70
3868;DHT22;1949;48.152;11.528;2023-10-19T15:49:51;19.10;55.70
3868;DHT22;1949;48.152;11.528;2023-10-19T15:52:25;19.10;55.80
3868;DHT22;1949;48.152;11.528;2023-10-19T15:54:52;19.10;55.80
3868;DHT22;1949;48.152;11.528;2023-10-19T15:57:18;19.10;55.80
3868;DHT22;1949;48.152;11.528;2023-10-19T15:59:45;19.10;55.80
3868;DHT22;1949;48.152;11.528;2023-10-19T16:02:13;19.10;55.80
3868;DHT22;1949;48.152;11.528;2023-10-19T16:04:41;19.00;55.70